createdAt,value
2018-04-28T00:00:40.911Z,0
2018-04-28T00:01:43.308Z,0
2018-04-28T00:02:45.685Z,0
2018-04-28T00:03:48.364Z,0
2018-04-28T00:04:50.761Z,0
2018-04-28T00:05:53.268Z,0
2018-04-28T00:06:55.803Z,0
2018-04-28T00:07:58.246Z,0
2018-04-28T00:09:00.562Z,0
2018-04-28T00:10:03.367Z,0
2018-04-28T00:11:05.750Z,0
2018-04-28T00:12:08.122Z,0
2018-04-28T00:13:10.517Z,0
2018-04-28T00:14:12.897Z,0
2018-04-28T00:15:15.549Z,0
2018-04-28T00:16:17.939Z,0
2018-04-28T00:17:20.463Z,0
2018-04-28T00:18:22.977Z,0
2018-04-28T00:19:25.557Z,0
2018-04-28T00:20:28.401Z,0
2018-04-28T00:21:30.779Z,0
2018-04-28T00:22:33.175Z,0
2018-04-28T00:23:35.869Z,0
2018-04-28T00:24:38.524Z,0
2018-04-28T00:25:41.194Z,0
2018-04-28T00:26:43.580Z,0
2018-04-28T00:27:45.966Z,0
2018-04-28T00:28:48.351Z,0
2018-04-28T00:29:50.730Z,0
2018-04-28T00:30:54.054Z,0
2018-04-28T00:31:56.458Z,0
2018-04-28T00:32:58.841Z,0
2018-04-28T00:34:01.598Z,0
2018-04-28T00:35:04.270Z,0
2018-04-28T00:36:06.654Z,0
2018-04-28T00:37:09.037Z,0
2018-04-28T00:38:11.420Z,0
2018-04-28T00:39:14.103Z,0
2018-04-28T00:40:16.485Z,0
2018-04-28T00:41:18.866Z,0
2018-04-28T00:42:21.252Z,0
2018-04-28T00:43:23.631Z,0
2018-04-28T00:44:26.614Z,0
2018-04-28T00:45:28.986Z,0
2018-04-28T00:46:31.382Z,0
2018-04-28T00:47:34.047Z,0
2018-04-28T00:48:36.423Z,0
2018-04-28T00:49:38.805Z,0
2018-04-28T00:50:41.192Z,0
2018-04-28T00:51:43.569Z,0
2018-04-28T00:52:45.949Z,0
2018-04-28T00:53:49.271Z,0
2018-04-28T00:54:51.656Z,0
2018-04-28T00:55:54.307Z,0
2018-04-28T00:56:56.693Z,0
2018-04-28T00:57:59.352Z,0
2018-04-28T00:59:02.024Z,0
2018-04-28T01:00:04.409Z,0
2018-04-28T01:01:07.086Z,0
2018-04-28T01:02:09.475Z,0
2018-04-28T01:03:11.857Z,0
2018-04-28T01:04:14.239Z,0
2018-04-28T01:05:17.208Z,0
2018-04-28T01:06:19.586Z,0
2018-04-28T01:07:21.961Z,0
2018-04-28T01:08:25.012Z,0
2018-04-28T01:09:27.677Z,0
2018-04-28T01:10:30.049Z,0
2018-04-28T01:11:32.445Z,0
2018-04-28T01:12:34.810Z,0
2018-04-28T01:13:37.196Z,0
2018-04-28T01:14:39.583Z,0
2018-04-28T01:15:41.963Z,0
2018-04-28T01:16:44.349Z,0
2018-04-28T01:17:47.017Z,0
2018-04-28T01:18:49.395Z,0
2018-04-28T01:19:51.775Z,0
2018-04-28T01:20:54.149Z,0
2018-04-28T01:21:56.551Z,0
2018-04-28T01:22:58.927Z,0
2018-04-28T01:24:01.316Z,0
2018-04-28T01:25:04.104Z,0
2018-04-28T01:26:07.046Z,0
2018-04-28T01:27:09.433Z,0
2018-04-28T01:28:11.814Z,0
2018-04-28T01:29:14.187Z,0
2018-04-28T01:30:16.959Z,0
2018-04-28T01:31:19.336Z,0
2018-04-28T01:32:22.306Z,0
2018-04-28T01:33:24.970Z,0
2018-04-28T01:34:27.348Z,0
2018-04-28T01:35:30.014Z,0
2018-04-28T01:36:32.403Z,0
2018-04-28T01:37:34.778Z,0
2018-04-28T01:38:37.159Z,0
2018-04-28T01:39:39.540Z,0
2018-04-28T01:40:42.216Z,0
2018-04-28T01:41:44.602Z,0
2018-04-28T01:42:46.989Z,0
2018-04-28T01:43:49.355Z,0
2018-04-28T01:44:52.012Z,0
2018-04-28T01:45:54.714Z,0
2018-04-28T01:46:57.095Z,0
2018-04-28T01:47:59.540Z,0
2018-04-28T01:49:01.863Z,0
2018-04-28T01:50:04.247Z,0
2018-04-28T01:51:06.629Z,0
2018-04-28T01:52:09.010Z,0
2018-04-28T01:53:11.398Z,0
2018-04-28T01:54:13.782Z,0
2018-04-28T01:55:16.162Z,0
2018-04-28T01:56:18.547Z,0
2018-04-28T01:57:20.918Z,0
2018-04-28T01:58:23.592Z,0
2018-04-28T01:59:26.261Z,0
2018-04-28T02:00:28.639Z,0
2018-04-28T02:01:31.304Z,0
2018-04-28T02:02:33.677Z,0
2018-04-28T02:03:36.331Z,0
2018-04-28T02:04:38.712Z,0
2018-04-28T02:05:41.379Z,0
2018-04-28T02:06:44.132Z,0
2018-04-28T02:07:46.523Z,0
2018-04-28T02:08:48.904Z,0
2018-04-28T02:09:51.288Z,0
2018-04-28T02:10:53.681Z,0
2018-04-28T02:11:56.718Z,0
2018-04-28T02:12:59.105Z,0
2018-04-28T02:14:01.481Z,0
2018-04-28T02:15:03.863Z,0
2018-04-28T02:16:06.547Z,0
2018-04-28T02:17:08.924Z,0
2018-04-28T02:18:11.314Z,0
2018-04-28T02:19:13.682Z,0
2018-04-28T02:20:16.348Z,0
2018-04-28T02:21:18.729Z,0
2018-04-28T02:22:21.105Z,0
2018-04-28T02:23:23.491Z,0
2018-04-28T02:24:25.871Z,0
2018-04-28T02:25:28.525Z,0
2018-04-28T02:26:30.920Z,0
2018-04-28T02:27:33.588Z,0
2018-04-28T02:28:35.962Z,0
2018-04-28T02:29:38.636Z,0
2018-04-28T02:30:41.029Z,0
2018-04-28T02:31:43.980Z,0
2018-04-28T02:32:46.754Z,0
2018-04-28T02:33:49.130Z,0
2018-04-28T02:34:51.897Z,0
2018-04-28T02:35:54.289Z,0
2018-04-28T02:36:56.951Z,0
2018-04-28T02:37:59.620Z,0
2018-04-28T02:39:02.317Z,0
2018-04-28T02:40:05.092Z,0
2018-04-28T02:41:07.482Z,0
2018-04-28T02:42:10.425Z,0
2018-04-28T02:43:13.088Z,0
2018-04-28T02:44:16.142Z,0
2018-04-28T02:45:18.523Z,0
2018-04-28T02:46:21.295Z,0
2018-04-28T02:47:23.959Z,0
2018-04-28T02:48:26.627Z,0
2018-04-28T02:49:29.295Z,0
2018-04-28T02:50:32.051Z,0
2018-04-28T02:51:34.428Z,0
2018-04-28T02:52:37.103Z,0
2018-04-28T02:53:39.768Z,0
2018-04-28T02:54:42.460Z,0
2018-04-28T02:55:45.804Z,0
2018-04-28T02:56:48.179Z,0
2018-04-28T02:57:50.955Z,0
2018-04-28T02:58:53.645Z,0
2018-04-28T02:59:56.030Z,0
2018-04-28T03:00:58.707Z,0
2018-04-28T03:02:01.369Z,0
2018-04-28T03:03:03.744Z,0
2018-04-28T03:04:06.144Z,0
2018-04-28T03:05:08.802Z,0
2018-04-28T03:06:11.185Z,0
2018-04-28T03:07:13.856Z,0
2018-04-28T03:08:16.823Z,0
2018-04-28T03:09:20.175Z,4
2018-04-28T03:10:22.564Z,4
2018-04-28T03:11:25.600Z,0
2018-04-28T03:12:27.989Z,4
2018-04-28T03:13:30.672Z,4
2018-04-28T03:14:33.335Z,4
2018-04-28T03:15:35.718Z,4
2018-04-28T03:16:38.108Z,8
2018-04-28T03:17:40.490Z,4
2018-04-28T03:18:42.873Z,8
2018-04-28T03:19:45.544Z,8
2018-04-28T03:20:48.200Z,12
2018-04-28T03:21:50.581Z,16
2018-04-28T03:22:52.958Z,20
2018-04-28T03:23:55.349Z,20
2018-04-28T03:24:58.010Z,24
2018-04-28T03:26:00.389Z,24
2018-04-28T03:27:02.777Z,32
2018-04-28T03:28:05.160Z,36
2018-04-28T03:29:07.927Z,40
2018-04-28T03:30:10.312Z,44
2018-04-28T03:31:13.079Z,52
2018-04-28T03:32:15.753Z,60
2018-04-28T03:33:18.143Z,72
2018-04-28T03:34:20.527Z,80
2018-04-28T03:35:23.205Z,92
2018-04-28T03:36:25.873Z,108
2018-04-28T03:37:28.525Z,124
2018-04-28T03:38:30.908Z,140
2018-04-28T03:39:33.287Z,160
2018-04-28T03:40:35.662Z,176
2018-04-28T03:41:38.052Z,200
2018-04-28T03:42:40.416Z,220
2018-04-28T03:43:42.790Z,244
2018-04-28T03:44:45.493Z,264
2018-04-28T03:45:47.865Z,288
2018-04-28T03:46:50.245Z,312
2018-04-28T03:47:52.622Z,336
2018-04-28T03:48:54.998Z,364
2018-04-28T03:49:57.375Z,392
2018-04-28T03:50:59.754Z,424
2018-04-28T03:52:02.146Z,452
2018-04-28T03:53:04.513Z,488
2018-04-28T03:54:07.286Z,520
2018-04-28T03:55:10.057Z,552
2018-04-28T03:56:12.440Z,592
2018-04-28T03:57:14.830Z,632
2018-04-28T03:58:17.216Z,668
2018-04-28T03:59:19.590Z,708
2018-04-28T04:00:21.973Z,744
2018-04-28T04:01:24.653Z,788
2018-04-28T04:02:27.034Z,832
2018-04-28T04:03:29.414Z,872
2018-04-28T04:04:32.171Z,916
2018-04-28T04:05:34.850Z,960
2018-04-28T04:06:37.232Z,1012
2018-04-28T04:07:39.616Z,1060
2018-04-28T04:08:41.993Z,1104
2018-04-28T04:09:44.384Z,1156
2018-04-28T04:10:47.038Z,1204
2018-04-28T04:11:49.709Z,1248
2018-04-28T04:12:52.382Z,1300
2018-04-28T04:13:55.053Z,1348
2018-04-28T04:14:57.426Z,1396
2018-04-28T04:15:59.821Z,1448
2018-04-28T04:17:02.470Z,1496
2018-04-28T04:18:04.849Z,1548
2018-04-28T04:19:07.230Z,1604
2018-04-28T04:20:09.611Z,1656
2018-04-28T04:21:12.270Z,1708
2018-04-28T04:22:15.037Z,1772
2018-04-28T04:23:17.423Z,1828
2018-04-28T04:24:19.812Z,1880
2018-04-28T04:25:22.855Z,1932
2018-04-28T04:26:25.279Z,1984
2018-04-28T04:27:27.918Z,2040
2018-04-28T04:28:30.297Z,2092
2018-04-28T04:29:32.671Z,2148
2018-04-28T04:30:35.047Z,2204
2018-04-28T04:31:37.719Z,2264
2018-04-28T04:32:40.112Z,2320
2018-04-28T04:33:42.498Z,2376
2018-04-28T04:34:45.176Z,2432
2018-04-28T04:35:47.841Z,2496
2018-04-28T04:36:50.502Z,2556
2018-04-28T04:37:52.891Z,2616
2018-04-28T04:38:55.657Z,2672
2018-04-28T04:39:58.037Z,2740
2018-04-28T04:41:00.411Z,2800
2018-04-28T04:42:02.801Z,2852
2018-04-28T04:43:05.184Z,2908
2018-04-28T04:44:07.841Z,2960
2018-04-28T04:45:10.222Z,3028
2018-04-28T04:46:12.602Z,3084
2018-04-28T04:47:14.973Z,3136
2018-04-28T04:48:17.355Z,3192
2018-04-28T04:49:19.740Z,3240
2018-04-28T04:50:22.118Z,3292
2018-04-28T04:51:24.504Z,3344
2018-04-28T04:52:27.170Z,3396
2018-04-28T04:53:30.232Z,3452
2018-04-28T04:54:32.892Z,3508
2018-04-28T04:55:35.281Z,3552
2018-04-28T04:56:37.930Z,3596
2018-04-28T04:57:40.701Z,3640
2018-04-28T04:58:43.086Z,3688
2018-04-28T04:59:45.459Z,3744
2018-04-28T05:00:47.844Z,3792
2018-04-28T05:01:50.219Z,3852
2018-04-28T05:02:52.615Z,3916
2018-04-28T05:03:54.982Z,3988
2018-04-28T05:04:57.759Z,4048
2018-04-28T05:06:00.136Z,4104
2018-04-28T05:07:02.513Z,4156
2018-04-28T05:08:05.194Z,4204
2018-04-28T05:09:07.949Z,4260
2018-04-28T05:10:10.331Z,4316
2018-04-28T05:11:12.706Z,4384
2018-04-28T05:12:15.092Z,4432
2018-04-28T05:13:17.460Z,4480
2018-04-28T05:14:20.136Z,4532
2018-04-28T05:15:23.174Z,4572
2018-04-28T05:16:25.563Z,4644
2018-04-28T05:17:28.522Z,4704
2018-04-28T05:18:31.569Z,4772
2018-04-28T05:19:33.951Z,4840
2018-04-28T05:20:36.342Z,4904
2018-04-28T05:21:38.724Z,4956
2018-04-28T05:22:41.102Z,5000
2018-04-28T05:23:43.492Z,5056
2018-04-28T05:24:45.872Z,5084
2018-04-28T05:25:48.260Z,5124
2018-04-28T05:26:50.639Z,5180
2018-04-28T05:27:53.020Z,5240
2018-04-28T05:28:55.682Z,5304
2018-04-28T05:29:58.080Z,5384
2018-04-28T05:31:00.442Z,5448
2018-04-28T05:32:02.829Z,5532
2018-04-28T05:33:05.202Z,5656
2018-04-28T05:34:07.591Z,5768
2018-04-28T05:35:09.972Z,5860
2018-04-28T05:36:12.345Z,5896
2018-04-28T05:37:15.115Z,5896
2018-04-28T05:38:17.501Z,5972
2018-04-28T05:39:19.881Z,6120
2018-04-28T05:40:22.545Z,6260
2018-04-28T05:41:24.927Z,6372
2018-04-28T05:42:27.719Z,6484
2018-04-28T05:43:31.153Z,6588
2018-04-28T05:44:33.819Z,6700
2018-04-28T05:45:36.510Z,6892
2018-04-28T05:46:38.894Z,7248
2018-04-28T05:47:41.558Z,7332
2018-04-28T05:48:43.945Z,7432
2018-04-28T05:49:46.330Z,7264
2018-04-28T05:50:48.714Z,7072
2018-04-28T05:51:51.660Z,6868
2018-04-28T05:52:54.328Z,6760
2018-04-28T05:53:56.703Z,6768
2018-04-28T05:54:59.099Z,7020
2018-04-28T05:56:01.462Z,7392
2018-04-28T05:57:03.841Z,7656
2018-04-28T05:58:06.222Z,7780
2018-04-28T05:59:08.597Z,7804
2018-04-28T06:00:10.988Z,7600
2018-04-28T06:01:13.660Z,7352
2018-04-28T06:02:16.329Z,7304
2018-04-28T06:03:18.713Z,7336
2018-04-28T06:04:21.101Z,7436
2018-04-28T06:05:23.468Z,7380
2018-04-28T06:06:25.853Z,7392
2018-04-28T06:07:28.624Z,7432
2018-04-28T06:08:31.392Z,7428
2018-04-28T06:09:33.778Z,7408
2018-04-28T06:10:36.157Z,7352
2018-04-28T06:11:38.544Z,7452
2018-04-28T06:12:40.937Z,7616
2018-04-28T06:13:43.325Z,7636
2018-04-28T06:14:45.703Z,8112
2018-04-28T06:15:48.103Z,8356
2018-04-28T06:16:50.759Z,8408
2018-04-28T06:17:53.148Z,8348
2018-04-28T06:18:55.532Z,8284
2018-04-28T06:19:57.954Z,8188
2018-04-28T06:21:00.310Z,8132
2018-04-28T06:22:02.693Z,8308
2018-04-28T06:23:05.363Z,8440
2018-04-28T06:24:07.742Z,8480
2018-04-28T06:25:10.128Z,8472
2018-04-28T06:26:12.514Z,8468
2018-04-28T06:27:14.881Z,8384
2018-04-28T06:28:17.280Z,8284
2018-04-28T06:29:19.654Z,8200
2018-04-28T06:30:22.035Z,8148
2018-04-28T06:31:24.705Z,8060
2018-04-28T06:32:27.090Z,7940
2018-04-28T06:33:29.477Z,7800
2018-04-28T06:34:32.440Z,7816
2018-04-28T06:35:34.824Z,8008
2018-04-28T06:36:37.500Z,8164
2018-04-28T06:37:39.894Z,8256
2018-04-28T06:38:42.261Z,8296
2018-04-28T06:39:44.926Z,8324
2018-04-28T06:40:47.315Z,8492
2018-04-28T06:41:49.694Z,8708
2018-04-28T06:42:52.084Z,8892
2018-04-28T06:43:54.470Z,8960
2018-04-28T06:44:56.859Z,8888
2018-04-28T06:45:59.227Z,8824
2018-04-28T06:47:01.617Z,8808
2018-04-28T06:48:04.001Z,9076
2018-04-28T06:49:06.392Z,9204
2018-04-28T06:50:09.055Z,9244
2018-04-28T06:51:11.500Z,9272
2018-04-28T06:52:13.814Z,9196
2018-04-28T06:53:16.206Z,9180
2018-04-28T06:54:18.592Z,9268
2018-04-28T06:55:21.246Z,9452
2018-04-28T06:56:23.636Z,9612
2018-04-28T06:57:26.026Z,9660
2018-04-28T06:58:28.416Z,9668
2018-04-28T06:59:31.575Z,9792
2018-04-28T07:00:34.517Z,9864
2018-04-28T07:01:36.900Z,9972
2018-04-28T07:02:39.300Z,10064
2018-04-28T07:03:41.960Z,10096
2018-04-28T07:04:44.349Z,10160
2018-04-28T07:05:46.720Z,10264
2018-04-28T07:06:49.107Z,10404
2018-04-28T07:07:51.491Z,10500
2018-04-28T07:08:54.264Z,10612
2018-04-28T07:09:56.645Z,10748
2018-04-28T07:10:59.027Z,10844
2018-04-28T07:12:01.412Z,10860
2018-04-28T07:13:03.804Z,11020
2018-04-28T07:14:06.188Z,11008
2018-04-28T07:15:08.576Z,11104
2018-04-28T07:16:11.252Z,11408
2018-04-28T07:17:13.643Z,11664
2018-04-28T07:18:16.312Z,11948
2018-04-28T07:19:18.716Z,12212
2018-04-28T07:20:21.096Z,12396
2018-04-28T07:21:23.480Z,12864
2018-04-28T07:22:26.143Z,12848
2018-04-28T07:23:28.802Z,12692
2018-04-28T07:24:31.193Z,12868
2018-04-28T07:25:33.585Z,12980
2018-04-28T07:26:36.241Z,13076
2018-04-28T07:27:38.908Z,12724
2018-04-28T07:28:41.307Z,12732
2018-04-28T07:29:43.691Z,12640
2018-04-28T07:30:46.091Z,12560
2018-04-28T07:31:48.475Z,12652
2018-04-28T07:32:51.146Z,12952
2018-04-28T07:33:53.536Z,13124
2018-04-28T07:34:56.309Z,13248
2018-04-28T07:35:58.686Z,13416
2018-04-28T07:37:01.095Z,13552
2018-04-28T07:38:03.745Z,13696
2018-04-28T07:39:06.427Z,13832
2018-04-28T07:40:09.091Z,13864
2018-04-28T07:41:11.480Z,13716
2018-04-28T07:42:13.880Z,13468
2018-04-28T07:43:16.265Z,13376
2018-04-28T07:44:18.652Z,13392
2018-04-28T07:45:21.044Z,13524
2018-04-28T07:46:24.025Z,13476
2018-04-28T07:47:26.973Z,13324
2018-04-28T07:48:29.363Z,13432
2018-04-28T07:49:31.748Z,13484
2018-04-28T07:50:34.148Z,13476
2018-04-28T07:51:36.817Z,13396
2018-04-28T07:52:39.221Z,13272
2018-04-28T07:53:41.609Z,13428
2018-04-28T07:54:44.004Z,13688
2018-04-28T07:55:46.399Z,13824
2018-04-28T07:56:49.071Z,13888
2018-04-28T07:57:51.460Z,13896
2018-04-28T07:58:53.854Z,14044
2018-04-28T07:59:56.530Z,14128
2018-04-28T08:00:58.941Z,14220
2018-04-28T08:02:01.331Z,14432
2018-04-28T08:03:04.176Z,14660
2018-04-28T08:04:06.561Z,15124
2018-04-28T08:05:09.252Z,23552
2018-04-28T08:06:11.649Z,53696
2018-04-28T08:07:14.442Z,68384
2018-04-28T08:08:16.838Z,61824
2018-04-28T08:09:19.233Z,64992
2018-04-28T08:10:21.909Z,74816
2018-04-28T08:11:24.299Z,71520
2018-04-28T08:12:26.686Z,72480
2018-04-28T08:13:29.082Z,83296
2018-04-28T08:14:31.472Z,84608
2018-04-28T08:15:34.146Z,83392
2018-04-28T08:16:36.537Z,84096
2018-04-28T08:17:38.919Z,90848
2018-04-28T08:18:41.299Z,90432
2018-04-28T08:19:43.694Z,85664
2018-04-28T08:20:46.137Z,86080
2018-04-28T08:21:49.186Z,81824
2018-04-28T08:22:51.581Z,81536
2018-04-28T08:23:53.974Z,88992
2018-04-28T08:24:56.362Z,93760
2018-04-28T08:25:58.770Z,90720
2018-04-28T08:27:01.457Z,76128
2018-04-28T08:28:03.838Z,73440
2018-04-28T08:29:06.229Z,68768
2018-04-28T08:30:08.628Z,67168
2018-04-28T08:31:11.021Z,73216
2018-04-28T08:32:13.418Z,79296
2018-04-28T08:33:15.793Z,84000
2018-04-28T08:34:18.470Z,81760
2018-04-28T08:35:20.864Z,84032
2018-04-28T08:36:23.644Z,95872
2018-04-28T08:37:26.152Z,103360
2018-04-28T08:38:28.431Z,110560
2018-04-28T08:39:30.828Z,113344
2018-04-28T08:40:33.230Z,110976
2018-04-28T08:41:35.610Z,106368
2018-04-28T08:42:38.009Z,110208
2018-04-28T08:43:40.399Z,95424
2018-04-28T08:44:42.796Z,80288
2018-04-28T08:45:45.191Z,82016
2018-04-28T08:46:47.892Z,90080
2018-04-28T08:47:50.672Z,91136
2018-04-28T08:48:53.066Z,81184
2018-04-28T08:49:55.460Z,72160
2018-04-28T08:50:57.930Z,74368
2018-04-28T08:52:00.647Z,78912
2018-04-28T08:53:03.044Z,80032
2018-04-28T08:54:05.753Z,85536
2018-04-28T08:55:08.127Z,82560
2018-04-28T08:56:10.549Z,76736
2018-04-28T08:57:13.235Z,77152
2018-04-28T08:58:15.620Z,83808
2018-04-28T08:59:18.315Z,93920
2018-04-28T09:00:20.987Z,83488
2018-04-28T09:01:23.684Z,93632
2018-04-28T09:02:26.093Z,93536
2018-04-28T09:03:28.523Z,81728
2018-04-28T09:04:30.880Z,88640
2018-04-28T09:05:33.287Z,88704
2018-04-28T09:06:35.670Z,99520
2018-04-28T09:07:38.065Z,92416
2018-04-28T09:08:40.776Z,95968
2018-04-28T09:09:43.172Z,93824
2018-04-28T09:10:45.564Z,102144
2018-04-28T09:11:47.956Z,107584
2018-04-28T09:12:50.350Z,111008
2018-04-28T09:13:52.755Z,121088
2018-04-28T09:14:55.190Z,130464
2018-04-28T09:15:57.569Z,128320
2018-04-28T09:16:59.972Z,119712
2018-04-28T09:18:02.377Z,107936
2018-04-28T09:19:04.761Z,104512
2018-04-28T09:20:07.446Z,110912
2018-04-28T09:21:09.838Z,106144
2018-04-28T09:22:12.535Z,114336
2018-04-28T09:23:14.945Z,117536
2018-04-28T09:24:17.343Z,118432
2018-04-28T09:25:19.730Z,118976
2018-04-28T09:26:22.235Z,115488
2018-04-28T09:27:24.943Z,109632
2018-04-28T09:28:27.909Z,114784
2018-04-28T09:29:30.309Z,116896
2018-04-28T09:30:32.709Z,107456
2018-04-28T09:31:35.095Z,99616
2018-04-28T09:32:37.516Z,102400
2018-04-28T09:33:39.923Z,116224
2018-04-28T09:34:42.366Z,124160
2018-04-28T09:35:45.235Z,115296
2018-04-28T09:36:47.926Z,108704
2018-04-28T09:37:50.331Z,105664
2018-04-28T09:38:52.737Z,118752
2018-04-28T09:39:55.486Z,114880
2018-04-28T09:40:57.811Z,111648
2018-04-28T09:42:00.230Z,121824
2018-04-28T09:43:02.617Z,122976
2018-04-28T09:44:05.408Z,118304
2018-04-28T09:45:07.814Z,118656
2018-04-28T09:46:10.220Z,120032
2018-04-28T09:47:12.613Z,112416
2018-04-28T09:48:15.011Z,119104
2018-04-28T09:49:17.425Z,117696
2018-04-28T09:50:19.816Z,108128
2018-04-28T09:51:22.497Z,106272
2018-04-28T09:52:24.914Z,105504
2018-04-28T09:53:27.304Z,105408
2018-04-28T09:54:29.994Z,107072
2018-04-28T09:55:32.404Z,107808
2018-04-28T09:56:35.068Z,111648
2018-04-28T09:57:37.477Z,109792
2018-04-28T09:58:39.870Z,102080
2018-04-28T09:59:42.662Z,103904
2018-04-28T10:00:45.071Z,108512
2018-04-28T10:01:47.754Z,112160
2018-04-28T10:02:50.827Z,103872
2018-04-28T10:03:53.619Z,104448
2018-04-28T10:04:56.011Z,112512
2018-04-28T10:05:58.509Z,111616
2018-04-28T10:07:01.298Z,108640
2018-04-28T10:08:04.080Z,114624
2018-04-28T10:09:06.481Z,120288
2018-04-28T10:10:08.879Z,109760
2018-04-28T10:11:11.289Z,104736
2018-04-28T10:12:13.691Z,101888
2018-04-28T10:13:16.099Z,109792
2018-04-28T10:14:18.798Z,109184
2018-04-28T10:15:21.188Z,106944
2018-04-28T10:16:23.584Z,110976
2018-04-28T10:17:25.990Z,112576
2018-04-28T10:18:28.667Z,108032
2018-04-28T10:19:31.069Z,104960
2018-04-28T10:20:33.464Z,104384
2018-04-28T10:21:35.864Z,101824
2018-04-28T10:22:38.290Z,97856
2018-04-28T10:23:40.693Z,96736
2018-04-28T10:24:43.089Z,107520
2018-04-28T10:25:45.769Z,119904
2018-04-28T10:26:48.468Z,118400
2018-04-28T10:27:50.879Z,107584
2018-04-28T10:28:53.565Z,112064
2018-04-28T10:29:55.960Z,112768
2018-04-28T10:30:58.845Z,122304
2018-04-28T10:32:01.166Z,118048
2018-04-28T10:33:04.232Z,119904
2018-04-28T10:34:06.632Z,112864
2018-04-28T10:35:09.033Z,112736
2018-04-28T10:36:11.425Z,96480
2018-04-28T10:37:13.840Z,112928
2018-04-28T10:38:16.248Z,129088
2018-04-28T10:39:18.637Z,131488
2018-04-28T10:40:21.046Z,123168
2018-04-28T10:41:23.449Z,112160
2018-04-28T10:42:25.853Z,115968
2018-04-28T10:43:28.536Z,109024
2018-04-28T10:44:30.934Z,100288
2018-04-28T10:45:33.343Z,98624
2018-04-28T10:46:35.731Z,105824
2018-04-28T10:47:38.192Z,112736
2018-04-28T10:48:41.054Z,115168
2018-04-28T10:49:43.745Z,112800
2018-04-28T10:50:46.159Z,112640
2018-04-28T10:51:48.556Z,118432
2018-04-28T10:52:51.239Z,127072
2018-04-28T10:53:53.723Z,132800
2018-04-28T10:54:56.636Z,135616
2018-04-28T10:55:59.059Z,128960
2018-04-28T10:57:01.435Z,119200
2018-04-28T10:58:03.905Z,115584
2018-04-28T10:59:06.536Z,121184
2018-04-28T11:00:09.514Z,127488
2018-04-28T11:01:11.909Z,136256
2018-04-28T11:02:14.305Z,127168
2018-04-28T11:03:16.720Z,125664
2018-04-28T11:04:19.118Z,124960
2018-04-28T11:05:21.528Z,122048
2018-04-28T11:06:23.936Z,116256
2018-04-28T11:07:26.338Z,115744
2018-04-28T11:08:28.743Z,115264
2018-04-28T11:09:31.150Z,112736
2018-04-28T11:10:33.543Z,107680
2018-04-28T11:11:35.943Z,107072
2018-04-28T11:12:38.656Z,107968
2018-04-28T11:13:41.446Z,105728
2018-04-28T11:14:43.834Z,98272
2018-04-28T11:15:46.248Z,42144
2018-04-28T11:16:48.643Z,30432
2018-04-28T11:17:51.328Z,37120
2018-04-28T11:18:53.735Z,57760
2018-04-28T11:19:56.494Z,92416
2018-04-28T11:20:59.128Z,115680
2018-04-28T11:22:01.825Z,120480
2018-04-28T11:23:04.606Z,121728
2018-04-28T11:24:07.290Z,120800
2018-04-28T11:25:09.775Z,131648
2018-04-28T11:26:12.472Z,124128
2018-04-28T11:27:14.878Z,43168
2018-04-28T11:28:17.288Z,42944
2018-04-28T11:29:19.968Z,65760
2018-04-28T11:30:22.651Z,36992
2018-04-28T11:31:25.049Z,38176
2018-04-28T11:32:27.454Z,59136
2018-04-28T11:33:29.852Z,50784
2018-04-28T11:34:32.534Z,98688
2018-04-28T11:35:34.932Z,106848
2018-04-28T11:36:37.352Z,110144
2018-04-28T11:37:40.141Z,100928
2018-04-28T11:38:42.856Z,30784
2018-04-28T11:39:45.261Z,46880
2018-04-28T11:40:47.945Z,30944
2018-04-28T11:41:50.347Z,26688
2018-04-28T11:42:52.751Z,22368
2018-04-28T11:43:55.146Z,20064
2018-04-28T11:44:57.836Z,18624
2018-04-28T11:46:00.242Z,18480
2018-04-28T11:47:02.931Z,21152
2018-04-28T11:48:05.614Z,22240
2018-04-28T11:49:08.008Z,24320
2018-04-28T11:50:10.415Z,25184
2018-04-28T11:51:12.811Z,24832
2018-04-28T11:52:15.212Z,23488
2018-04-28T11:53:17.639Z,20256
2018-04-28T11:54:20.004Z,17124
2018-04-28T11:55:22.405Z,12704
2018-04-28T11:56:24.808Z,10544
2018-04-28T11:57:27.198Z,9928
2018-04-28T11:58:29.605Z,9956
2018-04-28T11:59:32.287Z,11164
2018-04-28T12:00:34.675Z,14524
2018-04-28T12:01:37.084Z,22496
2018-04-28T12:02:39.514Z,97440
2018-04-28T12:03:41.871Z,48000
2018-04-28T12:04:44.272Z,60608
2018-04-28T12:05:46.713Z,35424
2018-04-28T12:06:49.473Z,25888
2018-04-28T12:07:52.159Z,21408
2018-04-28T12:08:54.559Z,22528
2018-04-28T12:09:57.239Z,25600
2018-04-28T12:10:59.642Z,30016
2018-04-28T12:12:02.034Z,42816
2018-04-28T12:13:04.818Z,41088
2018-04-28T12:14:07.224Z,112576
2018-04-28T12:15:09.618Z,33184
2018-04-28T12:16:12.026Z,120384
2018-04-28T12:17:14.430Z,124672
2018-04-28T12:18:17.109Z,111456
2018-04-28T12:19:20.180Z,118720
2018-04-28T12:20:22.867Z,38240
2018-04-28T12:21:25.255Z,54208
2018-04-28T12:22:27.653Z,97120
2018-04-28T12:23:30.057Z,97824
2018-04-28T12:24:32.460Z,111424
2018-04-28T12:25:34.865Z,110432
2018-04-28T12:26:37.538Z,80576
2018-04-28T12:27:39.935Z,95136
2018-04-28T12:28:42.335Z,76224
2018-04-28T12:29:45.124Z,82400
2018-04-28T12:30:47.944Z,28032
2018-04-28T12:31:50.721Z,54080
2018-04-28T12:32:53.508Z,27296
2018-04-28T12:33:56.193Z,25088
2018-04-28T12:34:58.587Z,24512
2018-04-28T12:36:01.288Z,24000
2018-04-28T12:37:04.406Z,22976
2018-04-28T12:38:06.803Z,19552
2018-04-28T12:39:09.202Z,17008
2018-04-28T12:40:12.159Z,16116
2018-04-28T12:41:14.859Z,17028
2018-04-28T12:42:17.543Z,17000
2018-04-28T12:43:19.938Z,16880
2018-04-28T12:44:22.323Z,16308
2018-04-28T12:45:24.734Z,15696
2018-04-28T12:46:27.132Z,15288
2018-04-28T12:47:29.517Z,15572
2018-04-28T12:48:31.919Z,14692
2018-04-28T12:49:34.597Z,13728
2018-04-28T12:50:37.147Z,12528
2018-04-28T12:51:39.857Z,12468
2018-04-28T12:52:42.247Z,12380
2018-04-28T12:53:45.025Z,11528
2018-04-28T12:54:47.720Z,12228
2018-04-28T12:55:50.128Z,13676
2018-04-28T12:56:52.509Z,13456
2018-04-28T12:57:55.187Z,13820
2018-04-28T12:58:57.578Z,15444
2018-04-28T12:59:59.991Z,19200
2018-04-28T13:01:02.388Z,27104
2018-04-28T13:02:04.778Z,124512
2018-04-28T13:03:07.179Z,126592
2018-04-28T13:04:09.572Z,35776
2018-04-28T13:05:12.258Z,104160
2018-04-28T13:06:14.661Z,52864
2018-04-28T13:07:17.123Z,67008
2018-04-28T13:08:19.595Z,22304
2018-04-28T13:09:22.039Z,22112
2018-04-28T13:10:24.497Z,22112
2018-04-28T13:11:27.250Z,22720
2018-04-28T13:12:29.705Z,24544
2018-04-28T13:13:32.538Z,32672
2018-04-28T13:14:35.290Z,34208
2018-04-28T13:15:37.743Z,29856
2018-04-28T13:16:40.194Z,28736
2018-04-28T13:17:42.660Z,27872
2018-04-28T13:18:45.479Z,29760
2018-04-28T13:19:47.944Z,34272
2018-04-28T13:20:50.682Z,31360
2018-04-28T13:21:53.425Z,32256
2018-04-28T13:22:55.885Z,33696
2018-04-28T13:23:58.622Z,31264
2018-04-28T13:25:01.065Z,29696
2018-04-28T13:26:03.540Z,28832
2018-04-28T13:27:05.984Z,31296
2018-04-28T13:28:08.431Z,33632
2018-04-28T13:29:11.344Z,42368
2018-04-28T13:30:13.722Z,33600
2018-04-28T13:31:16.182Z,35840
2018-04-28T13:32:18.646Z,97984
2018-04-28T13:33:21.095Z,63808
2018-04-28T13:34:23.852Z,54752
2018-04-28T13:35:26.298Z,111104
2018-04-28T13:36:28.754Z,49888
2018-04-28T13:37:31.665Z,76960
2018-04-28T13:38:34.122Z,51520
2018-04-28T13:39:36.877Z,31520
2018-04-28T13:40:39.606Z,28384
2018-04-28T13:41:42.066Z,25184
2018-04-28T13:42:44.526Z,22752
2018-04-28T13:43:46.980Z,21440
2018-04-28T13:44:49.430Z,20480
2018-04-28T13:45:51.883Z,22528
2018-04-28T13:46:54.624Z,22464
2018-04-28T13:47:57.071Z,23488
2018-04-28T13:48:59.521Z,22976
2018-04-28T13:50:01.976Z,20000
2018-04-28T13:51:04.712Z,16920
2018-04-28T13:52:07.184Z,15732
2018-04-28T13:53:10.204Z,15280
2018-04-28T13:54:12.650Z,14384
2018-04-28T13:55:15.403Z,13176